Memorial Village's Hourly Summary for Sunday, July 8, 2018
Hour Temp
(f)
RH
(%)
Solar Rad.
(MJ/m2)
Rainfall
(in)
Wind
(mph)
7/8/2018 12:00 AM 77 87 0 0 0
7/8/2018 1:00 AM 76 91 0 0 0
7/8/2018 2:00 AM 76 92 0 0 0
7/8/2018 3:00 AM 76 93 0 0 0
7/8/2018 4:00 AM 75 95 0 0 0
7/8/2018 5:00 AM 75 95 0 0 0
7/8/2018 6:00 AM 74 96 0.01 0 0
7/8/2018 7:00 AM 75 92 0.11 0 0
7/8/2018 8:00 AM 78 77 0.4 0 0.18
7/8/2018 9:00 AM 83 67 0.96 0 0.04
7/8/2018 10:00 AM 83 69 0.58 0 0.01
7/8/2018 11:00 AM 83 66 0.87 0 0.56
7/8/2018 12:00 PM 74 81 0.15 0.4 0.52
7/8/2018 1:00 PM 75 96 0.34 0.02 0.15
7/8/2018 2:00 PM 76 94 0.53 0.01 0.05
7/8/2018 3:00 PM 77 89 0.64 0.01 0.07
7/8/2018 4:00 PM 78 88 0.56 0 0.45
7/8/2018 5:00 PM 78 85 0.39 0 0.22
7/8/2018 6:00 PM 79 82 0.41 0 0.06
7/8/2018 7:00 PM 78 84 0.15 0 0
7/8/2018 8:00 PM 76 88 0.02 0 0
7/8/2018 9:00 PM 75 94 0 0 0
7/8/2018 10:00 PM 75 96 0 0 0
7/8/2018 11:00 PM 75 95 0 0 0
Data Summary 76 87 6.12 0.44 0.10